Time;durP1;ratioP1;P1;durP2;ratioP2;P2;SDS_P1;SDS_P2;PMS_P1;PMS_P2;Temp;Humidity;BMP_temperature;BMP_pressure;BME280_temperature;BME280_humidity;BME280_pressure;Samples;Min_cycle;Max_cycle;Signal;HPM_P1;HPM_P2
2023/10/23 00:01:13;;;;;;;11.60;7.30;;;;;;;14.96;75.30;99021.55;105086;1267;59365;-76
2023/10/23 00:03:41;;;;;;;11.50;6.70;;;;;;;14.89;75.31;99019.89;105470;1266;59356;-78
2023/10/23 00:06:09;;;;;;;14.00;7.10;;;;;;;14.91;75.35;99016.67;105424;1261;71006;-76
2023/10/23 00:08:36;;;;;;;16.00;7.80;;;;;;;14.92;75.20;99014.60;105473;1265;68718;-76
2023/10/23 00:11:03;;;;;;;16.60;8.00;;;;;;;14.86;75.55;99014.77;105740;1261;72624;-75
2023/10/23 00:13:31;;;;;;;10.10;6.30;;;;;;;14.80;75.80;99009.12;106600;1257;188913;-77
2023/10/23 00:15:58;;;;;;;10.80;5.90;;;;;;;14.78;76.06;99007.29;105904;1257;59247;-77
2023/10/23 00:18:26;;;;;;;14.10;7.10;;;;;;;14.82;75.84;99009.98;105620;1258;70621;-75
2023/10/23 00:20:53;;;;;;;10.20;6.60;;;;;;;14.79;76.01;99011.35;105536;1258;70304;-77
2023/10/23 00:23:21;;;;;;;8.40;5.10;;;;;;;14.74;76.29;99008.48;105682;1257;71328;-76
2023/10/23 00:25:48;;;;;;;9.70;5.80;;;;;;;14.74;76.47;99013.05;106002;1261;60411;-74
2023/10/23 00:28:15;;;;;;;9.10;5.50;;;;;;;14.80;76.22;99010.77;105680;1257;60205;-76
2023/10/23 00:30:43;;;;;;;8.40;5.20;;;;;;;14.76;76.59;99009.46;105505;1260;73077;-77
2023/10/23 00:33:11;;;;;;;12.10;5.40;;;;;;;14.68;76.73;99008.35;105595;1263;70470;-77
2023/10/23 00:35:39;;;;;;;11.80;5.60;;;;;;;14.67;77.13;99004.50;105635;1257;72702;-77
2023/10/23 00:38:06;;;;;;;8.60;5.70;;;;;;;14.70;76.80;99007.94;105512;1263;59736;-77
2023/10/23 00:40:34;;;;;;;7.10;5.00;;;;;;;14.66;77.06;99002.06;105670;1257;60034;-77
2023/10/23 00:43:17;;;;;;;8.30;5.50;;;;;;;14.60;77.39;99005.06;105707;1258;73042;-78
2023/10/23 00:46:10;;;;;;;11.40;5.40;;;;;;;14.56;77.62;99012.70;105963;1257;70158;-76
2023/10/23 00:48:37;;;;;;;11.50;5.70;;;;;;;14.62;77.41;99011.21;105956;1252;70532;-78
2023/10/23 00:51:05;;;;;;;8.00;4.40;;;;;;;14.59;77.45;99014.35;105764;1257;60155;-79
2023/10/23 00:53:35;;;;;;;11.40;5.60;;;;;;;14.50;77.85;99006.17;105887;1254;59611;-76
2023/10/23 00:56:04;;;;;;;9.70;4.50;;;;;;;14.52;77.86;99006.33;105823;1260;72527;-76
2023/10/23 00:58:33;;;;;;;11.30;4.60;;;;;;;14.51;78.13;99009.66;105819;1254;72073;-75
2023/10/23 01:01:01;;;;;;;6.90;4.60;;;;;;;14.44;78.15;99009.19;106008;1254;71288;-78
2023/10/23 01:03:28;;;;;;;10.70;4.70;;;;;;;14.37;78.31;99011.73;105984;1253;61033;-78
2023/10/23 01:05:56;;;;;;;10.40;4.90;;;;;;;14.40;78.45;99007.66;105782;1253;60241;-78
2023/10/23 01:08:25;;;;;;;9.30;5.00;;;;;;;14.39;78.37;99001.03;105976;1254;73098;-80
2023/10/23 01:10:52;;;;;;;11.90;5.10;;;;;;;14.30;78.67;99011.36;105971;1254;72144;-77
2023/10/23 01:13:19;;;;;;;8.70;4.50;;;;;;;14.25;78.96;99007.73;106207;1259;71316;-80
2023/10/23 01:15:47;;;;;;;10.20;4.80;;;;;;;14.25;79.27;99009.83;106238;1254;60116;-77
2023/10/23 01:18:14;;;;;;;11.20;5.10;;;;;;;14.19;79.36;99015.69;106043;1259;60245;-78
2023/10/23 01:20:42;;;;;;;7.00;3.70;;;;;;;14.14;79.64;99016.11;106386;1256;72680;-79
2023/10/23 01:23:09;;;;;;;10.90;5.80;;;;;;;14.17;79.49;99014.91;106059;1254;69202;-78
2023/10/23 01:25:38;;;;;;;7.40;4.60;;;;;;;14.15;79.56;99011.75;106306;1254;72471;-78
2023/10/23 01:28:06;;;;;;;7.10;4.00;;;;;;;14.08;79.88;99015.02;106404;1254;59817;-77
2023/10/23 01:30:33;;;;;;;12.60;4.90;;;;;;;14.06;80.20;99013.36;106544;1254;59875;-76
2023/10/23 01:33:01;;;;;;;5.90;3.70;;;;;;;14.09;80.26;99016.45;106388;1254;72061;-79
2023/10/23 01:35:28;;;;;;;9.20;4.50;;;;;;;14.07;80.15;99018.46;106017;1259;70135;-78
2023/10/23 01:37:56;;;;;;;13.30;5.00;;;;;;;14.03;80.47;99016.41;105896;1256;72922;-79
2023/10/23 01:40:23;;;;;;;8.30;4.10;;;;;;;14.05;80.82;99024.83;105952;1254;60945;-76
2023/10/23 01:42:51;;;;;;;17.30;4.80;;;;;;;14.08;80.87;99025.36;106182;1254;60101;-78
2023/10/23 01:45:19;;;;;;;8.70;4.80;;;;;;;14.05;80.88;99024.92;106463;1252;72676;-77
2023/10/23 01:47:46;;;;;;;10.20;4.50;;;;;;;14.06;80.91;99025.65;105882;1259;69185;-78
2023/10/23 01:50:14;;;;;;;5.00;4.00;;;;;;;14.11;80.85;99024.05;105761;1254;71377;-78
2023/10/23 01:52:44;;;;;;;5.80;4.50;;;;;;;14.08;80.73;99024.50;105889;1256;59631;-76
2023/10/23 01:55:12;;;;;;;5.60;3.20;;;;;;;14.06;80.97;99022.16;106255;1258;60023;-79
2023/10/23 01:57:39;;;;;;;9.40;3.70;;;;;;;14.11;80.79;99025.60;105927;1253;71978;-78
2023/10/23 02:00:09;;;;;;;6.50;3.50;;;;;;;14.10;80.79;99025.40;105823;1259;69335;-75
2023/10/23 02:02:39;;;;;;;5.50;3.20;;;;;;;14.06;81.12;99026.80;105890;1259;72447;-76
2023/10/23 02:05:07;;;;;;;8.80;3.40;;;;;;;14.09;81.11;99030.59;105921;1254;60365;-78
2023/10/23 02:07:35;;;;;;;8.50;4.00;;;;;;;14.09;81.06;99025.73;105796;1252;59710;-78
2023/10/23 02:10:02;;;;;;;6.80;3.80;;;;;;;14.03;81.43;99034.79;105772;1252;73446;-78
2023/10/23 02:12:32;;;;;;;8.30;3.40;;;;;;;13.96;81.87;99034.77;105839;1259;68736;-77
2023/10/23 02:15:00;;;;;;;5.10;3.20;;;;;;;13.99;82.00;99034.79;105946;1256;72751;-78
2023/10/23 02:17:28;;;;;;;7.80;4.60;;;;;;;13.98;82.24;99036.33;105868;1254;60040;-79
2023/10/23 02:19:55;;;;;;;7.30;4.80;;;;;;;13.93;82.46;99031.59;106249;1254;59793;-77
2023/10/23 02:22:23;;;;;;;6.00;4.40;;;;;;;13.93;82.60;99034.91;106540;1254;71526;-77
2023/10/23 02:24:50;;;;;;;7.70;4.00;;;;;;;13.98;82.66;99030.98;106208;1257;68675;-80
2023/10/23 02:27:19;;;;;;;5.60;3.20;;;;;;;13.96;82.80;99025.55;105917;1254;72668;-80
2023/10/23 02:29:47;;;;;;;5.20;2.90;;;;;;;13.90;83.06;99037.06;105805;1254;60004;-79
2023/10/23 02:32:15;;;;;;;6.60;3.70;;;;;;;13.90;83.27;99033.48;106014;1257;59390;-79
2023/10/23 02:34:43;;;;;;;6.50;3.70;;;;;;;13.91;83.26;99034.55;105852;1257;71839;-76
2023/10/23 02:37:11;;;;;;;4.40;2.90;;;;;;;13.85;83.32;99033.56;105896;1252;70610;-79
2023/10/23 02:39:39;;;;;;;5.00;2.90;;;;;;;13.77;84.08;99039.12;105842;1254;72482;-81
2023/10/23 02:42:07;;;;;;;4.40;3.00;;;;;;;13.77;84.07;99036.03;105986;1254;60767;-76
2023/10/23 02:44:35;;;;;;;5.00;2.70;;;;;;;13.78;84.18;99038.75;105779;1253;60013;-81
2023/10/23 02:47:03;;;;;;;5.20;3.40;;;;;;;13.71;84.36;99039.73;106136;1254;71821;-78
2023/10/23 02:49:31;;;;;;;12.10;3.80;;;;;;;13.67;84.82;99042.40;106047;1254;69950;-77
2023/10/23 02:51:58;;;;;;;6.40;3.30;;;;;;;13.69;84.96;99044.33;105947;1254;71077;-77
2023/10/23 02:54:25;;;;;;;7.10;3.90;;;;;;;13.67;84.89;99046.39;105921;1254;60005;-77
2023/10/23 02:56:53;;;;;;;6.80;3.80;;;;;;;13.58;85.30;99040.80;105864;1259;59634;-77
2023/10/23 02:59:21;;;;;;;4.80;3.50;;;;;;;13.52;85.64;99046.91;105814;1257;73133;-79
2023/10/23 03:01:48;;;;;;;4.90;2.90;;;;;;;13.53;85.68;99043.70;105975;1253;70663;-79
2023/10/23 03:04:16;;;;;;;3.70;2.80;;;;;;;13.50;85.74;99045.02;106011;1254;72099;-76
2023/10/23 03:06:43;;;;;;;6.80;3.30;;;;;;;13.42;85.88;99045.88;106041;1257;59180;-77
2023/10/23 03:09:11;;;;;;;4.10;2.70;;;;;;;13.37;86.12;99044.59;106575;1254;60368;-77
2023/10/23 03:11:40;;;;;;;6.20;4.90;;;;;;;13.41;85.83;99047.81;105955;1254;71835;-73
2023/10/23 03:14:08;;;;;;;4.10;3.50;;;;;;;13.42;85.85;99048.42;106328;1256;70295;-74
2023/10/23 03:16:35;;;;;;;4.10;2.50;;;;;;;13.36;85.69;99049.73;105905;1254;72652;-77
2023/10/23 03:19:03;;;;;;;2.40;1.90;;;;;;;13.29;85.77;99050.27;106000;1254;60215;-73
2023/10/23 03:21:32;;;;;;;4.10;2.80;;;;;;;13.32;85.85;99053.78;105842;1253;60905;-76
2023/10/23 03:23:59;;;;;;;5.00;2.30;;;;;;;13.33;85.56;99053.83;105789;1258;73032;-75
2023/10/23 03:26:28;;;;;;;2.50;1.80;;;;;;;13.26;85.79;99055.49;105925;1255;72096;-76
2023/10/23 03:28:55;;;;;;;4.80;2.00;;;;;;;13.23;85.80;99057.52;105927;1255;71767;-75
2023/10/23 03:31:23;;;;;;;4.50;2.00;;;;;;;13.26;85.72;99056.52;105736;1254;60902;-77
2023/10/23 03:33:51;;;;;;;5.10;1.80;;;;;;;13.25;85.62;99064.78;105918;1254;60039;-78
2023/10/23 03:36:19;;;;;;;3.00;2.00;;;;;;;13.18;85.70;99066.06;105960;1256;71894;-75
2023/10/23 03:38:47;;;;;;;1.90;1.50;;;;;;;13.11;85.93;99065.90;105910;1257;69298;-75
2023/10/23 03:41:14;;;;;;;4.60;1.70;;;;;;;13.12;86.02;99069.71;105784;1258;72683;-76
2023/10/23 03:43:42;;;;;;;5.10;2.30;;;;;;;13.14;86.05;99067.59;105869;1254;60380;-75
2023/10/23 03:46:09;;;;;;;2.80;1.80;;;;;;;13.10;86.25;99069.63;105923;1254;59784;-74
2023/10/23 03:48:37;;;;;;;2.40;1.80;;;;;;;13.04;86.57;99069.60;105868;1254;74340;-73
2023/10/23 03:51:05;;;;;;;4.20;2.10;;;;;;;12.98;86.49;99071.85;105773;1257;70155;-73
2023/10/23 03:53:32;;;;;;;2.30;2.00;;;;;;;13.03;86.61;99069.81;105861;1257;71471;-77
2023/10/23 03:56:00;;;;;;;1.80;1.60;;;;;;;13.03;86.55;99073.88;105718;1254;59581;-81
2023/10/23 03:58:27;;;;;;;1.50;1.40;;;;;;;12.96;86.74;99076.39;105850;1253;59634;-76
2023/10/23 04:00:55;;;;;;;2.40;1.70;;;;;;;12.92;86.79;99073.19;105807;1259;72251;-76
2023/10/23 04:03:22;;;;;;;3.20;1.80;;;;;;;12.96;86.87;99077.98;105742;1254;72183;-77
2023/10/23 04:05:50;;;;;;;3.20;1.90;;;;;;;12.95;86.80;99073.68;105884;1254;72512;-76
2023/10/23 04:08:17;;;;;;;9.70;2.10;;;;;;;12.86;87.24;99068.89;105792;1254;60527;-77
2023/10/23 04:10:48;;;;;;;2.00;1.80;;;;;;;12.86;87.34;99072.58;105857;1258;60944;-75
2023/10/23 04:13:15;;;;;;;2.30;1.80;;;;;;;12.88;87.59;99077.78;105834;1259;73911;-75
2023/10/23 04:15:53;;;;;;;7.40;2.30;;;;;;;12.82;87.66;99073.55;105929;1254;70492;-78
2023/10/23 04:18:20;;;;;;;2.50;2.00;;;;;;;12.76;88.02;99073.98;105775;1257;71298;-76
2023/10/23 04:20:48;;;;;;;5.80;2.00;;;;;;;12.77;88.23;99077.17;105897;1256;60380;-77
2023/10/23 04:23:15;;;;;;;2.60;2.20;;;;;;;12.77;88.07;99077.22;105966;1253;61013;-79
2023/10/23 04:25:43;;;;;;;4.40;2.10;;;;;;;12.70;88.33;99079.03;105915;1253;73929;-78
2023/10/23 04:28:10;;;;;;;2.20;1.80;;;;;;;12.63;88.75;99077.31;105736;1254;69384;-78
2023/10/23 04:30:39;;;;;;;2.70;2.10;;;;;;;12.65;88.66;99082.24;106021;1254;71397;-78
2023/10/23 04:33:06;;;;;;;3.50;2.10;;;;;;;12.67;88.41;99083.08;106616;1258;60506;-78
2023/10/23 04:35:35;;;;;;;2.90;1.90;;;;;;;12.62;88.04;99087.27;106084;1254;60450;-76
2023/10/23 04:38:02;;;;;;;2.70;2.00;;;;;;;12.62;87.83;99085.39;105870;1252;71456;-75
2023/10/23 04:40:29;;;;;;;2.20;1.60;;;;;;;12.66;87.41;99090.45;105966;1256;69029;-76
2023/10/23 04:42:57;;;;;;;5.20;2.30;;;;;;;12.62;87.15;99091.49;105962;1253;71015;-76
2023/10/23 04:45:24;;;;;;;2.30;1.60;;;;;;;12.59;86.81;99093.82;107121;1254;60384;-79
2023/10/23 04:47:52;;;;;;;3.50;1.80;;;;;;;12.64;85.91;99097.78;106453;1257;60326;-75
2023/10/23 04:50:19;;;;;;;1.70;1.40;;;;;;;12.69;85.20;99098.59;105778;1259;73881;-77
2023/10/23 04:52:47;;;;;;;1.60;1.50;;;;;;;12.68;84.83;99107.06;105811;1254;70887;-77
2023/10/23 04:55:14;;;;;;;1.60;1.40;;;;;;;12.64;84.25;99102.73;105762;1256;71493;-78
2023/10/23 04:57:42;;;;;;;2.00;1.40;;;;;;;12.65;83.92;99105.45;106027;1259;61863;-78
2023/10/23 05:00:11;;;;;;;2.70;1.30;;;;;;;12.75;83.31;99104.89;106223;1256;59281;-79
2023/10/23 05:02:38;;;;;;;1.70;1.60;;;;;;;12.78;83.09;99109.44;106178;1254;73818;-79
2023/10/23 05:05:06;;;;;;;2.50;1.60;;;;;;;12.75;82.84;99106.39;106000;1254;70319;-81
2023/10/23 05:07:34;;;;;;;2.20;1.30;;;;;;;12.78;82.76;99102.52;106038;1254;72753;-81
2023/10/23 05:10:04;;;;;;;3.60;1.40;;;;;;;12.83;82.43;99114.31;105972;1254;60462;-81
2023/10/23 05:12:31;;;;;;;5.50;1.90;;;;;;;12.80;82.38;99115.77;105927;1254;60455;-79
2023/10/23 05:15:00;;;;;;;4.80;1.50;;;;;;;12.78;82.55;99119.20;105820;1254;73780;-77
2023/10/23 05:17:28;;;;;;;1.50;1.30;;;;;;;12.86;82.52;99127.61;106184;1252;70503;-78
2023/10/23 05:19:56;;;;;;;3.20;1.40;;;;;;;12.93;81.96;99126.70;106853;1254;71193;-80
2023/10/23 05:22:24;;;;;;;2.00;1.70;;;;;;;12.94;81.87;99127.41;106727;1255;60488;-81
2023/10/23 05:24:51;;;;;;;1.70;1.50;;;;;;;12.93;81.86;99130.34;106146;1252;60530;-80
2023/10/23 05:27:19;;;;;;;2.20;2.10;;;;;;;12.95;81.78;99135.56;105983;1254;74297;-76
2023/10/23 05:29:46;;;;;;;3.20;2.10;;;;;;;13.01;81.34;99136.25;106752;1254;70176;-76
2023/10/23 05:32:14;;;;;;;2.30;2.00;;;;;;;13.00;81.18;99135.27;107730;1254;74191;-80
2023/10/23 05:34:44;;;;;;;2.80;1.70;;;;;;;12.98;81.21;99142.07;107113;1257;60553;-74
2023/10/23 05:37:12;;;;;;;1.90;1.60;;;;;;;13.06;80.93;99137.63;106556;1253;61972;-81
2023/10/23 05:39:40;;;;;;;2.00;1.70;;;;;;;13.12;80.61;99147.83;106804;1254;74520;-80
2023/10/23 05:42:08;;;;;;;3.00;1.70;;;;;;;13.10;80.39;99144.42;106435;1254;69693;-79
2023/10/23 05:44:35;;;;;;;4.20;1.60;;;;;;;13.12;80.33;99146.18;105989;1254;71836;-79
2023/10/23 05:47:03;;;;;;;2.20;1.60;;;;;;;13.22;80.03;99145.28;105884;1257;61723;-76
2023/10/23 05:49:30;;;;;;;4.00;1.90;;;;;;;13.26;80.01;99144.02;106053;1254;60476;-75
2023/10/23 05:51:58;;;;;;;3.50;1.80;;;;;;;13.24;80.10;99141.11;106293;1254;72581;-73
2023/10/23 05:54:25;;;;;;;4.20;2.10;;;;;;;13.22;79.96;99153.61;105744;1259;69111;-75
2023/10/23 05:56:53;;;;;;;2.20;1.60;;;;;;;13.29;79.80;99145.70;105953;1254;71126;-76
2023/10/23 05:59:20;;;;;;;2.60;1.90;;;;;;;13.36;79.55;99146.67;105903;1254;60524;-76
2023/10/23 06:01:47;;;;;;;4.90;1.70;;;;;;;13.35;79.22;99151.22;105983;1254;60412;-75
2023/10/23 06:04:15;;;;;;;2.40;1.80;;;;;;;13.33;79.39;99148.77;105877;1252;72665;-76
2023/10/23 06:06:43;;;;;;;2.50;1.90;;;;;;;13.39;79.22;99156.36;105893;1252;70333;-76
2023/10/23 06:09:10;;;;;;;1.60;1.50;;;;;;;13.46;78.91;99156.88;105958;1254;71700;-75
2023/10/23 06:11:38;;;;;;;3.30;1.90;;;;;;;13.46;78.70;99152.28;105967;1256;60440;-76
2023/10/23 06:14:05;;;;;;;6.00;2.00;;;;;;;13.45;78.74;99158.31;106027;1253;60645;-77
2023/10/23 06:16:33;;;;;;;2.00;1.80;;;;;;;13.48;78.92;99156.44;106116;1254;74732;-78
2023/10/23 06:19:01;;;;;;;2.80;2.10;;;;;;;13.57;78.42;99158.77;105909;1254;68884;-76
2023/10/23 06:21:28;;;;;;;3.50;2.20;;;;;;;13.60;78.18;99162.02;105863;1254;71880;-76
2023/10/23 06:23:55;;;;;;;3.40;2.00;;;;;;;13.60;78.17;99162.20;105888;1251;60485;-79
2023/10/23 06:26:23;;;;;;;3.40;1.80;;;;;;;13.60;78.13;99164.14;105945;1254;60381;-78
2023/10/23 06:28:50;;;;;;;4.20;1.90;;;;;;;13.70;77.88;99166.05;105722;1259;72595;-78
2023/10/23 06:31:18;;;;;;;4.20;2.10;;;;;;;13.78;77.55;99168.94;105876;1254;69092;-76
2023/10/23 06:33:46;;;;;;;2.80;1.90;;;;;;;13.78;77.39;99169.06;106072;1254;72706;-78
2023/10/23 06:36:14;;;;;;;4.10;2.00;;;;;;;13.78;77.13;99170.17;106139;1255;60404;-78
2023/10/23 06:38:41;;;;;;;4.40;2.10;;;;;;;13.79;77.47;99173.38;106080;1256;60382;-78
2023/10/23 06:41:09;;;;;;;2.90;2.00;;;;;;;13.88;76.96;99176.81;105940;1252;72671;-78
2023/10/23 06:43:41;;;;;;;2.60;2.20;;;;;;;13.91;76.95;99170.61;106174;1258;68852;-80
2023/10/23 06:46:08;;;;;;;2.20;2.00;;;;;;;13.90;76.58;99177.91;105970;1252;72710;-78
2023/10/23 06:48:36;;;;;;;1.90;1.70;;;;;;;13.93;76.81;99176.69;105974;1253;63865;-77
2023/10/23 06:51:04;;;;;;;3.10;2.30;;;;;;;14.04;76.61;99179.66;105875;1254;60899;-75
2023/10/23 06:53:32;;;;;;;3.00;1.70;;;;;;;14.12;76.33;99179.13;105974;1251;72657;-77
2023/10/23 06:55:59;;;;;;;6.80;2.10;;;;;;;14.15;76.13;99179.86;105954;1256;69028;-76
2023/10/23 06:58:26;;;;;;;2.70;2.10;;;;;;;14.16;76.15;99180.60;105886;1258;72665;-78
2023/10/23 07:00:54;;;;;;;2.80;1.90;;;;;;;14.15;76.04;99183.20;105853;1254;60412;-78
2023/10/23 07:03:21;;;;;;;2.80;1.90;;;;;;;14.23;75.85;99185.36;105792;1254;60537;-79
2023/10/23 07:05:49;;;;;;;3.90;2.30;;;;;;;14.26;75.64;99194.42;105925;1254;73763;-78
2023/10/23 07:08:17;;;;;;;4.40;2.30;;;;;;;14.21;75.35;99193.09;105957;1253;67944;-75
2023/10/23 07:10:44;;;;;;;2.90;2.50;;;;;;;14.15;75.64;99192.27;105873;1254;72541;-75
2023/10/23 07:13:11;;;;;;;2.80;1.90;;;;;;;14.12;76.02;99190.42;105849;1254;60760;-78
2023/10/23 07:15:49;;;;;;;3.00;2.20;;;;;;;14.18;75.58;99195.48;105962;1254;60526;-79
2023/10/23 07:18:17;;;;;;;2.00;1.80;;;;;;;14.15;75.56;99199.02;105821;1254;73863;-77
2023/10/23 07:20:56;;;;;;;3.00;2.10;;;;;;;14.12;75.93;99191.58;105803;1254;68759;-78
2023/10/23 07:23:23;;;;;;;2.60;1.80;;;;;;;14.11;75.99;99203.69;106015;1254;70718;-76
2023/10/23 07:26:02;;;;;;;3.70;2.20;;;;;;;14.18;75.85;99197.21;105794;1253;60666;-76
2023/10/23 07:28:30;;;;;;;2.90;2.10;;;;;;;14.30;75.30;99207.52;105942;1254;60545;-81
2023/10/23 07:30:57;;;;;;;2.70;2.10;;;;;;;14.37;74.53;99204.45;105882;1254;73911;-79
2023/10/23 07:33:24;;;;;;;2.20;2.00;;;;;;;14.45;74.62;99204.89;105877;1254;69995;-77
2023/10/23 07:36:10;;;;;;;2.50;2.00;;;;;;;14.54;74.65;99198.36;105917;1258;70543;-76
2023/10/23 07:38:40;;;;;;;2.10;1.80;;;;;;;14.65;73.85;99206.60;105973;1254;60537;-77
2023/10/23 07:41:09;;;;;;;2.90;2.00;;;;;;;14.79;73.45;99207.31;106058;1258;60355;-78
2023/10/23 07:43:36;;;;;;;3.90;2.50;;;;;;;14.83;72.85;99211.14;105940;1258;73917;-79
2023/10/23 07:46:05;;;;;;;5.30;2.10;;;;;;;14.85;72.73;99215.36;105931;1258;70316;-77
2023/10/23 07:48:43;;;;;;;4.70;2.40;;;;;;;14.83;73.00;99221.70;106410;1254;71811;-78
2023/10/23 07:51:11;;;;;;;2.40;2.20;;;;;;;14.80;72.92;99220.27;106384;1254;60542;-79
2023/10/23 07:53:38;;;;;;;5.10;2.10;;;;;;;14.83;72.77;99225.09;105965;1259;61990;-77
2023/10/23 07:56:06;;;;;;;3.80;2.40;;;;;;;14.92;72.27;99224.40;105926;1258;75865;-79
2023/10/23 07:58:33;;;;;;;2.40;2.20;;;;;;;14.91;72.23;99228.19;105859;1254;69389;-77
2023/10/23 08:01:04;;;;;;;2.90;2.50;;;;;;;14.86;72.27;99233.88;105941;1254;72659;-80
2023/10/23 08:03:33;;;;;;;15.10;3.30;;;;;;;14.82;72.08;99232.62;106045;1253;60551;-78
2023/10/23 08:06:06;;;;;;;2.50;2.20;;;;;;;14.78;72.28;99226.11;106006;1254;60404;-78
2023/10/23 08:08:37;;;;;;;2.70;2.20;;;;;;;14.79;72.60;99228.88;106110;1257;74068;-76
2023/10/23 08:11:07;;;;;;;5.20;2.50;;;;;;;14.84;72.45;99231.86;106402;1254;70547;-78
2023/10/23 08:13:34;;;;;;;2.50;1.90;;;;;;;14.97;71.93;99233.90;106340;1254;72714;-78
2023/10/23 08:16:03;;;;;;;2.30;2.10;;;;;;;14.99;71.74;99234.48;106381;1254;60536;-79
2023/10/23 08:18:34;;;;;;;2.70;2.40;;;;;;;14.94;71.74;99233.63;106360;1256;60428;-78
2023/10/23 08:21:17;;;;;;;3.40;2.60;;;;;;;14.85;71.46;99239.27;106338;1251;73822;-78
2023/10/23 08:24:03;;;;;;;2.50;2.30;;;;;;;14.79;71.79;99237.02;106386;1256;69365;-78
2023/10/23 08:26:31;;;;;;;2.80;2.20;;;;;;;14.77;71.94;99231.23;106364;1257;71698;-78
2023/10/23 08:28:58;;;;;;;2.60;2.40;;;;;;;14.81;71.96;99224.96;106329;1259;60491;-77
2023/10/23 08:31:30;;;;;;;2.50;2.30;;;;;;;14.97;71.81;99230.91;106198;1253;60323;-75
2023/10/23 08:34:07;;;;;;;2.70;2.40;;;;;;;15.09;71.50;99227.98;106279;1254;74127;-79
2023/10/23 08:36:35;;;;;;;2.80;2.30;;;;;;;15.20;71.21;99232.20;106342;1254;69906;-77
2023/10/23 08:39:03;;;;;;;2.90;2.40;;;;;;;15.31;70.46;99230.89;106297;1254;72791;-79
2023/10/23 08:41:31;;;;;;;2.70;2.50;;;;;;;15.39;70.30;99237.28;106168;1257;60611;-78
2023/10/23 08:43:58;;;;;;;3.00;2.60;;;;;;;15.52;70.06;99231.91;106175;1254;60338;-79
2023/10/23 08:46:34;;;;;;;3.10;2.80;;;;;;;15.71;69.73;99230.39;106364;1254;73711;-80
2023/10/23 08:49:02;;;;;;;5.30;2.80;;;;;;;15.96;68.82;99230.94;106204;1259;69104;-79
2023/10/23 08:51:31;;;;;;;3.40;2.40;;;;;;;16.19;67.67;99226.95;106169;1254;74844;-76
2023/10/23 08:54:28;;;;;;;5.30;2.40;;;;;;;16.40;67.09;99237.42;106625;1255;60550;-79
2023/10/23 08:57:00;;;;;;;3.80;2.50;;;;;;;16.73;66.49;99234.71;106289;1255;60996;-78
2023/10/23 08:59:28;;;;;;;3.60;2.70;;;;;;;17.10;65.51;99229.95;106078;1254;76189;-78
2023/10/23 09:01:57;;;;;;;4.40;2.70;;;;;;;17.48;64.49;99231.75;106338;1254;68933;-85
2023/10/23 09:04:28;;;;;;;2.30;2.10;;;;;;;17.75;62.86;99229.95;106352;1259;71599;-81
2023/10/23 09:06:59;;;;;;;3.50;1.90;;;;;;;17.80;62.12;99233.15;107156;1254;59228;-82
2023/10/23 09:09:27;;;;;;;4.00;3.10;;;;;;;17.67;61.82;99233.95;107099;1253;60424;-80
2023/10/23 09:11:54;;;;;;;2.50;2.30;;;;;;;17.48;62.26;99242.16;107007;1253;72621;-81
2023/10/23 09:14:23;;;;;;;4.40;2.50;;;;;;;17.34;62.30;99238.98;106594;1254;69765;-82
2023/10/23 09:16:52;;;;;;;4.50;2.30;;;;;;;17.26;62.30;99243.69;107265;1254;72655;-79
2023/10/23 09:19:25;;;;;;;7.10;2.90;;;;;;;17.13;61.90;99241.52;107633;1254;60859;-81
2023/10/23 09:21:56;;;;;;;6.10;3.00;;;;;;;16.97;62.40;99240.13;106711;1252;60617;-78
2023/10/23 09:24:24;;;;;;;3.30;2.40;;;;;;;16.82;63.11;99243.10;106511;1254;72800;-79
2023/10/23 09:26:52;;;;;;;2.80;2.50;;;;;;;16.90;62.88;99249.44;106566;1254;69184;-85
2023/10/23 09:29:24;;;;;;;3.20;2.40;;;;;;;17.31;62.24;99246.36;106555;1254;71858;-80
2023/10/23 09:31:52;;;;;;;4.10;2.50;;;;;;;17.81;60.89;99244.85;106124;1259;60280;-82
2023/10/23 09:34:21;;;;;;;3.00;2.70;;;;;;;18.11;59.96;99235.14;106158;1253;60418;-81
2023/10/23 09:36:52;;;;;;;2.90;2.60;;;;;;;18.27;59.31;99241.52;106997;1254;74796;-84
2023/10/23 09:39:24;;;;;;;3.70;2.60;;;;;;;18.32;58.76;99254.35;106023;1254;69493;-82
2023/10/23 09:41:52;;;;;;;5.10;2.80;;;;;;;18.11;58.80;99239.70;105896;1254;72140;-80
2023/10/23 09:44:20;;;;;;;4.10;2.40;;;;;;;17.78;59.52;99245.43;105938;1254;61080;-81
2023/10/23 09:46:50;;;;;;;5.30;2.50;;;;;;;17.51;60.31;99242.13;105861;1254;60306;-81
2023/10/23 09:49:17;;;;;;;4.50;2.50;;;;;;;17.26;61.04;99247.38;105841;1260;74463;-81
2023/10/23 09:51:47;;;;;;;3.50;3.00;;;;;;;17.09;61.65;99243.92;106049;1258;69055;-84
2023/10/23 09:54:17;;;;;;;6.20;3.40;;;;;;;17.03;61.96;99245.35;105874;1253;71925;-82
2023/10/23 09:56:53;;;;;;;8.50;3.10;;;;;;;16.93;62.47;99242.73;106440;1256;60588;-82
2023/10/23 09:59:26;;;;;;;4.70;3.20;;;;;;;16.80;62.71;99248.57;108911;1253;58999;-81
2023/10/23 10:01:57;;;;;;;6.00;2.90;;;;;;;16.69;63.19;99250.76;107514;1254;73781;-81
2023/10/23 10:04:27;;;;;;;3.20;2.80;;;;;;;16.63;63.28;99252.30;106555;1257;70156;-84
2023/10/23 10:07:23;;;;;;;4.70;3.00;;;;;;;16.56;63.33;99252.52;106204;1254;70686;-85
2023/10/23 10:09:51;;;;;;;3.40;3.10;;;;;;;16.44;62.99;99264.08;106217;1255;60507;-79
2023/10/23 10:12:18;;;;;;;3.30;3.00;;;;;;;16.35;63.19;99253.89;106308;1253;60345;-80
2023/10/23 10:14:46;;;;;;;5.50;2.70;;;;;;;16.28;63.18;99251.04;106466;1254;73833;-83
2023/10/23 10:17:19;;;;;;;3.50;3.20;;;;;;;16.23;63.48;99254.30;106598;1258;69526;-83
2023/10/23 10:19:47;;;;;;;3.60;2.50;;;;;;;16.19;63.41;99252.91;105901;1257;72940;-85
2023/10/23 10:22:23;;;;;;;5.20;2.70;;;;;;;16.18;62.95;99250.63;107026;1254;62101;-80
2023/10/23 10:24:52;;;;;;;3.90;3.30;;;;;;;16.24;62.67;99252.43;107522;1252;59212;-81
2023/10/23 10:27:20;;;;;;;3.60;3.20;;;;;;;16.40;62.69;99254.09;107821;1254;75447;-82
2023/10/23 10:29:47;;;;;;;3.30;2.60;;;;;;;16.53;62.34;99256.45;106301;1254;70310;-83
2023/10/23 10:32:15;;;;;;;4.90;2.60;;;;;;;16.59;62.31;99254.39;105941;1254;72659;-83
2023/10/23 10:34:46;;;;;;;5.00;3.00;;;;;;;16.73;61.81;99259.30;106174;1254;60446;-84
2023/10/23 10:37:25;;;;;;;3.60;2.60;;;;;;;17.02;61.15;99254.73;106174;1259;60453;-82
2023/10/23 10:39:56;;;;;;;3.90;2.60;;;;;;;17.24;60.60;99260.11;106119;1259;71720;-82
2023/10/23 10:42:25;;;;;;;3.10;2.60;;;;;;;17.25;59.91;99257.79;106124;1259;70138;-82
2023/10/23 10:44:57;;;;;;;3.50;2.50;;;;;;;17.15;59.93;99257.36;105975;1259;72490;-84
2023/10/23 10:47:41;;;;;;;5.00;3.20;;;;;;;16.97;59.88;99258.77;107373;1254;63075;-83
2023/10/23 10:50:10;;;;;;;3.90;2.70;;;;;;;16.76;60.66;99259.91;108601;1252;60096;-83
2023/10/23 10:52:40;;;;;;;3.80;3.00;;;;;;;16.61;61.09;99265.72;107217;1258;72596;-84
2023/10/23 10:55:11;;;;;;;3.80;2.90;;;;;;;16.50;61.62;99269.98;106379;1259;69168;-82
2023/10/23 10:57:40;;;;;;;4.30;2.70;;;;;;;16.44;61.93;99265.81;107888;1254;71820;-83
2023/10/23 11:00:11;;;;;;;3.70;2.60;;;;;;;16.42;62.04;99270.45;106357;1259;60494;-83
2023/10/23 11:02:39;;;;;;;3.40;2.60;;;;;;;16.41;62.36;99274.70;106313;1253;60405;-85
2023/10/23 11:05:11;;;;;;;5.70;2.60;;;;;;;16.54;62.20;99271.17;107177;1254;73790;-84
2023/10/23 11:07:39;;;;;;;5.70;2.70;;;;;;;16.67;61.79;99277.55;108145;1259;69171;-82
2023/10/23 11:10:10;;;;;;;3.20;2.60;;;;;;;17.10;60.89;99284.00;107813;1254;71427;-85
2023/10/23 11:12:38;;;;;;;4.20;2.90;;;;;;;17.66;59.70;99280.86;107109;1254;59231;-85
2023/10/23 11:15:06;;;;;;;3.80;2.70;;;;;;;18.09;58.60;99280.50;106435;1257;61079;-84
2023/10/23 11:17:34;;;;;;;3.30;3.00;;;;;;;18.43;57.27;99282.92;106263;1252;72770;-83
2023/10/23 11:20:07;;;;;;;4.30;3.30;;;;;;;19.00;56.44;99283.11;105994;1260;72366;-83
2023/10/23 11:22:34;;;;;;;2.70;2.50;;;;;;;19.87;55.03;99280.22;106152;1254;71416;-87
2023/10/23 11:25:06;;;;;;;2.40;2.20;;;;;;;20.46;53.08;99279.23;106146;1254;60910;-83
2023/10/23 11:27:33;;;;;;;2.80;2.60;;;;;;;20.63;51.54;99279.17;106389;1255;60428;-83
2023/10/23 11:30:01;;;;;;;5.10;2.90;;;;;;;20.40;51.80;99289.89;106414;1259;72559;-82
2023/10/23 11:32:28;;;;;;;7.10;2.80;;;;;;;20.08;52.05;99291.98;106218;1254;71230;-85